sensor_id;sensor_type;location;lat;lon;timestamp;pressure;altitude;pressure_sealevel;temperature;humidity
39613;BME280;25303;48.896;13.342;2024-03-02T00:09:16;91802.50;;;5.88;75.90
39613;BME280;25303;48.896;13.342;2024-03-02T00:19:19;91803.50;;;5.96;75.53
39613;BME280;25303;48.896;13.342;2024-03-02T00:29:24;91796.94;;;5.85;76.27
39613;BME280;25303;48.896;13.342;2024-03-02T00:39:27;91806.19;;;5.86;76.08
39613;BME280;25303;48.896;13.342;2024-03-02T00:49:31;91817.59;;;5.65;77.14
39613;BME280;25303;48.896;13.342;2024-03-02T00:59:34;91812.44;;;5.57;77.93
39613;BME280;25303;48.896;13.342;2024-03-02T01:09:39;91813.53;;;5.54;78.37
39613;BME280;25303;48.896;13.342;2024-03-02T01:19:43;91812.28;;;5.58;78.41
39613;BME280;25303;48.896;13.342;2024-03-02T01:29:47;91812.63;;;5.63;77.94
39613;BME280;25303;48.896;13.342;2024-03-02T01:39:50;91815.31;;;5.54;78.88
39613;BME280;25303;48.896;13.342;2024-03-02T01:49:55;91806.47;;;5.40;79.43
39613;BME280;25303;48.896;13.342;2024-03-02T01:59:57;91802.75;;;5.34;79.76
39613;BME280;25303;48.896;13.342;2024-03-02T02:10:02;91789.25;;;5.50;78.83
39613;BME280;25303;48.896;13.342;2024-03-02T02:20:06;91788.66;;;5.56;78.29
39613;BME280;25303;48.896;13.342;2024-03-02T02:30:13;91780.06;;;5.57;78.27
39613;BME280;25303;48.896;13.342;2024-03-02T02:40:16;91759.47;;;5.59;78.00
39613;BME280;25303;48.896;13.342;2024-03-02T02:50:22;91755.78;;;5.53;77.67
39613;BME280;25303;48.896;13.342;2024-03-02T03:00:25;91751.50;;;5.54;77.62
39613;BME280;25303;48.896;13.342;2024-03-02T03:10:29;91755.47;;;5.56;77.36
39613;BME280;25303;48.896;13.342;2024-03-02T03:20:32;91763.28;;;5.55;77.41
39613;BME280;25303;48.896;13.342;2024-03-02T03:30:37;91765.88;;;5.63;77.25
39613;BME280;25303;48.896;13.342;2024-03-02T03:40:40;91770.34;;;5.61;77.35
39613;BME280;25303;48.896;13.342;2024-03-02T03:50:44;91766.53;;;5.65;77.08
39613;BME280;25303;48.896;13.342;2024-03-02T04:00:48;91769.53;;;5.60;76.92
39613;BME280;25303;48.896;13.342;2024-03-02T04:10:52;91762.53;;;5.62;76.92
39613;BME280;25303;48.896;13.342;2024-03-02T04:20:55;91772.88;;;5.61;76.78
39613;BME280;25303;48.896;13.342;2024-03-02T04:31:01;91778.59;;;5.55;76.66
39613;BME280;25303;48.896;13.342;2024-03-02T04:41:05;91781.78;;;5.57;76.54
39613;BME280;25303;48.896;13.342;2024-03-02T04:51:10;91788.31;;;5.51;75.90
39613;BME280;25303;48.896;13.342;2024-03-02T05:01:13;91795.03;;;5.52;76.11
39613;BME280;25303;48.896;13.342;2024-03-02T05:11:19;91801.72;;;5.53;76.05
39613;BME280;25303;48.896;13.342;2024-03-02T05:21:46;91801.38;;;5.48;76.19
39613;BME280;25303;48.896;13.342;2024-03-02T05:31:51;91801.25;;;5.50;76.20
39613;BME280;25303;48.896;13.342;2024-03-02T05:41:54;91806.19;;;5.51;76.01
39613;BME280;25303;48.896;13.342;2024-03-02T05:51:59;91818.66;;;5.54;75.98
39613;BME280;25303;48.896;13.342;2024-03-02T06:02:02;91808.91;;;5.50;76.07
39613;BME280;25303;48.896;13.342;2024-03-02T06:12:07;91828.06;;;5.54;75.82
39613;BME280;25303;48.896;13.342;2024-03-02T06:22:10;91831.91;;;5.58;75.79
39613;BME280;25303;48.896;13.342;2024-03-02T06:32:15;91838.72;;;5.49;76.09
39613;BME280;25303;48.896;13.342;2024-03-02T06:42:18;91833.66;;;5.57;76.04
39613;BME280;25303;48.896;13.342;2024-03-02T06:52:22;91841.16;;;5.59;75.64
39613;BME280;25303;48.896;13.342;2024-03-02T07:02:26;91844.84;;;5.65;75.99
39613;BME280;25303;48.896;13.342;2024-03-02T07:12:30;91843.63;;;5.69;76.13
39613;BME280;25303;48.896;13.342;2024-03-02T07:22:34;91863.94;;;5.78;76.09
39613;BME280;25303;48.896;13.342;2024-03-02T07:32:43;91880.09;;;5.87;75.90
39613;BME280;25303;48.896;13.342;2024-03-02T07:42:47;91901.69;;;5.93;76.01
39613;BME280;25303;48.896;13.342;2024-03-02T07:52:52;91915.09;;;5.95;76.05
39613;BME280;25303;48.896;13.342;2024-03-02T08:02:55;91919.47;;;6.03;75.96
39613;BME280;25303;48.896;13.342;2024-03-02T08:12:59;91925.13;;;6.15;75.98
39613;BME280;25303;48.896;13.342;2024-03-02T08:23:03;91922.88;;;6.12;75.73
39613;BME280;25303;48.896;13.342;2024-03-02T08:33:07;91927.09;;;6.29;76.22
39613;BME280;25303;48.896;13.342;2024-03-02T08:43:11;91930.38;;;6.56;76.19
39613;BME280;25303;48.896;13.342;2024-03-02T08:53:15;91931.06;;;6.75;76.31
39613;BME280;25303;48.896;13.342;2024-03-02T09:03:20;91923.91;;;6.78;75.85
39613;BME280;25303;48.896;13.342;2024-03-02T09:13:24;91911.47;;;7.50;75.92
39613;BME280;25303;48.896;13.342;2024-03-02T09:23:27;91915.63;;;7.75;74.51
39613;BME280;25303;48.896;13.342;2024-03-02T09:33:32;91912.03;;;8.01;75.33
39613;BME280;25303;48.896;13.342;2024-03-02T09:43:35;91901.44;;;8.04;73.57
39613;BME280;25303;48.896;13.342;2024-03-02T09:53:39;91903.19;;;8.12;74.92
39613;BME280;25303;48.896;13.342;2024-03-02T10:03:44;91910.28;;;8.50;73.60
39613;BME280;25303;48.896;13.342;2024-03-02T10:14:05;91907.84;;;8.57;73.17
39613;BME280;25303;48.896;13.342;2024-03-02T10:24:10;91901.88;;;8.64;72.82
39613;BME280;25303;48.896;13.342;2024-03-02T10:34:15;91903.47;;;8.65;73.54
39613;BME280;25303;48.896;13.342;2024-03-02T10:44:18;91894.78;;;8.98;73.87
39613;BME280;25303;48.896;13.342;2024-03-02T10:54:23;91879.66;;;9.50;73.50
39613;BME280;25303;48.896;13.342;2024-03-02T11:04:31;91865.25;;;10.09;73.01
39613;BME280;25303;48.896;13.342;2024-03-02T11:14:37;91866.94;;;10.83;70.93
39613;BME280;25303;48.896;13.342;2024-03-02T11:24:48;91844.00;;;11.32;69.92
39613;BME280;25303;48.896;13.342;2024-03-02T11:34:53;91822.94;;;11.85;68.32
39613;BME280;25303;48.896;13.342;2024-03-02T11:44:56;91822.63;;;11.38;67.33
39613;BME280;25303;48.896;13.342;2024-03-02T11:55:02;91817.19;;;11.54;66.27
39613;BME280;25303;48.896;13.342;2024-03-02T12:05:07;91798.53;;;11.81;66.91
39613;BME280;25303;48.896;13.342;2024-03-02T12:15:13;91787.59;;;12.14;65.42
39613;BME280;25303;48.896;13.342;2024-03-02T12:25:19;91785.59;;;12.71;65.42
39613;BME280;25303;48.896;13.342;2024-03-02T12:35:24;91780.09;;;13.35;63.54
39613;BME280;25303;48.896;13.342;2024-03-02T12:45:27;91768.06;;;13.94;63.04
39613;BME280;25303;48.896;13.342;2024-03-02T12:55:32;91761.44;;;14.12;60.95
39613;BME280;25303;48.896;13.342;2024-03-02T13:05:35;91753.91;;;14.49;59.25
39613;BME280;25303;48.896;13.342;2024-03-02T13:15:40;91744.19;;;15.09;59.92
39613;BME280;25303;48.896;13.342;2024-03-02T13:25:44;91734.75;;;15.40;57.88
39613;BME280;25303;48.896;13.342;2024-03-02T13:35:51;91728.19;;;15.62;57.60
39613;BME280;25303;48.896;13.342;2024-03-02T13:45:54;91733.19;;;15.57;55.85
39613;BME280;25303;48.896;13.342;2024-03-02T13:55:58;91725.34;;;15.45;55.63
39613;BME280;25303;48.896;13.342;2024-03-02T14:06:01;91729.16;;;15.43;55.16
39613;BME280;25303;48.896;13.342;2024-03-02T14:16:06;91721.78;;;14.96;55.23
39613;BME280;25303;48.896;13.342;2024-03-02T14:26:10;91718.13;;;14.33;55.16
39613;BME280;25303;48.896;13.342;2024-03-02T14:36:15;91711.25;;;13.61;55.87
39613;BME280;25303;48.896;13.342;2024-03-02T14:46:19;91708.13;;;13.25;56.71
39613;BME280;25303;48.896;13.342;2024-03-02T14:56:23;91708.31;;;13.17;57.50
39613;BME280;25303;48.896;13.342;2024-03-02T15:06:27;91693.03;;;12.95;57.52
39613;BME280;25303;48.896;13.342;2024-03-02T15:16:32;91680.31;;;13.14;57.54
39613;BME280;25303;48.896;13.342;2024-03-02T15:26:35;91667.97;;;13.29;57.14
39613;BME280;25303;48.896;13.342;2024-03-02T15:36:40;91661.97;;;13.29;56.62
39613;BME280;25303;48.896;13.342;2024-03-02T15:46:43;91658.78;;;13.27;57.36
39613;BME280;25303;48.896;13.342;2024-03-02T15:56:47;91653.47;;;13.08;57.97
39613;BME280;25303;48.896;13.342;2024-03-02T16:06:50;91659.28;;;12.63;58.75
39613;BME280;25303;48.896;13.342;2024-03-02T16:16:55;91663.81;;;12.41;59.24
39613;BME280;25303;48.896;13.342;2024-03-02T16:26:58;91670.50;;;12.15;59.75
39613;BME280;25303;48.896;13.342;2024-03-02T16:37:02;91666.44;;;11.85;59.52
39613;BME280;25303;48.896;13.342;2024-03-02T16:47:06;91667.72;;;11.61;59.88
39613;BME280;25303;48.896;13.342;2024-03-02T16:57:11;91667.25;;;11.37;60.05
39613;BME280;25303;48.896;13.342;2024-03-02T17:07:14;91678.84;;;11.20;60.47
39613;BME280;25303;48.896;13.342;2024-03-02T17:17:19;91685.81;;;10.98;60.34
39613;BME280;25303;48.896;13.342;2024-03-02T17:27:22;91683.34;;;10.61;60.64
39613;BME280;25303;48.896;13.342;2024-03-02T17:37:26;91685.84;;;10.11;61.41
39613;BME280;25303;48.896;13.342;2024-03-02T17:47:29;91685.34;;;9.64;62.90
39613;BME280;25303;48.896;13.342;2024-03-02T17:57:34;91679.00;;;9.45;63.12
39613;BME280;25303;48.896;13.342;2024-03-02T18:07:37;91683.25;;;9.22;63.32
39613;BME280;25303;48.896;13.342;2024-03-02T18:17:42;91674.13;;;9.05;63.38
39613;BME280;25303;48.896;13.342;2024-03-02T18:27:45;91678.00;;;8.86;63.71
39613;BME280;25303;48.896;13.342;2024-03-02T18:37:49;91666.66;;;8.65;63.72
39613;BME280;25303;48.896;13.342;2024-03-02T18:47:52;91661.13;;;8.53;63.88
39613;BME280;25303;48.896;13.342;2024-03-02T18:57:57;91663.72;;;8.45;63.58
39613;BME280;25303;48.896;13.342;2024-03-02T19:08:00;91663.31;;;8.18;64.56
39613;BME280;25303;48.896;13.342;2024-03-02T19:18:05;91653.84;;;8.18;64.27
39613;BME280;25303;48.896;13.342;2024-03-02T19:28:08;91656.81;;;8.07;64.06
39613;BME280;25303;48.896;13.342;2024-03-02T19:38:12;91644.06;;;7.99;63.96
39613;BME280;25303;48.896;13.342;2024-03-02T19:48:16;91633.81;;;7.75;64.16
39613;BME280;25303;48.896;13.342;2024-03-02T19:58:21;91628.41;;;7.62;64.45
39613;BME280;25303;48.896;13.342;2024-03-02T20:08:24;91631.28;;;7.67;64.29
39613;BME280;25303;48.896;13.342;2024-03-02T20:18:29;91614.66;;;7.63;64.00
39613;BME280;25303;48.896;13.342;2024-03-02T20:28:32;91621.75;;;7.53;64.34
39613;BME280;25303;48.896;13.342;2024-03-02T20:38:36;91619.16;;;7.61;64.02
39613;BME280;25303;48.896;13.342;2024-03-02T20:48:40;91618.16;;;7.62;63.86
39613;BME280;25303;48.896;13.342;2024-03-02T20:58:45;91612.25;;;7.62;63.98
39613;BME280;25303;48.896;13.342;2024-03-02T21:08:48;91610.03;;;7.58;64.38
39613;BME280;25303;48.896;13.342;2024-03-02T21:18:53;91599.66;;;7.52;64.58
39613;BME280;25303;48.896;13.342;2024-03-02T21:28:57;91592.22;;;7.42;65.07
39613;BME280;25303;48.896;13.342;2024-03-02T21:39:01;91584.22;;;7.37;65.62
39613;BME280;25303;48.896;13.342;2024-03-02T21:49:06;91581.34;;;7.40;65.52
39613;BME280;25303;48.896;13.342;2024-03-02T21:59:11;91584.97;;;7.45;65.29
39613;BME280;25303;48.896;13.342;2024-03-02T22:09:14;91576.81;;;7.50;64.94
39613;BME280;25303;48.896;13.342;2024-03-02T22:19:18;91560.00;;;7.48;65.07
39613;BME280;25303;48.896;13.342;2024-03-02T22:29:21;91558.19;;;7.56;64.31
39613;BME280;25303;48.896;13.342;2024-03-02T22:39:25;91554.88;;;7.48;64.17
39613;BME280;25303;48.896;13.342;2024-03-02T22:49:28;91549.00;;;7.39;64.34
39613;BME280;25303;48.896;13.342;2024-03-02T22:59:33;91543.75;;;7.09;64.88
39613;BME280;25303;48.896;13.342;2024-03-02T23:09:36;91533.34;;;6.79;65.72
39613;BME280;25303;48.896;13.342;2024-03-02T23:19:41;91527.75;;;6.75;65.52
39613;BME280;25303;48.896;13.342;2024-03-02T23:29:44;91519.47;;;6.73;65.23
39613;BME280;25303;48.896;13.342;2024-03-02T23:39:48;91505.63;;;6.91;64.12
39613;BME280;25303;48.896;13.342;2024-03-02T23:50:19;91489.66;;;6.89;64.04
